createdAt,value
2019-02-06T00:00:08.622Z,0
2019-02-06T00:01:09.199Z,0
2019-02-06T00:02:09.917Z,0
2019-02-06T00:03:10.483Z,0
2019-02-06T00:04:11.051Z,0
2019-02-06T00:05:14.335Z,0
2019-02-06T00:06:13.180Z,0
2019-02-06T00:07:13.744Z,0
2019-02-06T00:08:14.334Z,0
2019-02-06T00:09:14.883Z,0
2019-02-06T00:10:15.445Z,0
2019-02-06T00:11:16.011Z,0
2019-02-06T00:12:16.587Z,0
2019-02-06T00:13:17.159Z,0
2019-02-06T00:14:17.759Z,0
2019-02-06T00:15:18.361Z,0
2019-02-06T00:16:18.900Z,0
2019-02-06T00:17:19.465Z,0
2019-02-06T00:18:20.051Z,0
2019-02-06T00:19:20.596Z,0
2019-02-06T00:20:21.162Z,0
2019-02-06T00:21:21.736Z,0
2019-02-06T00:22:22.304Z,0
2019-02-06T00:23:22.870Z,0
2019-02-06T00:24:23.436Z,0
2019-02-06T00:25:24.002Z,0
2019-02-06T00:26:24.579Z,0
2019-02-06T00:27:25.146Z,0
2019-02-06T00:28:25.724Z,0
2019-02-06T00:29:26.289Z,0
2019-02-06T00:30:26.854Z,0
2019-02-06T00:31:27.438Z,0
2019-02-06T00:32:27.997Z,0
2019-02-06T00:33:28.564Z,0
2019-02-06T00:34:29.130Z,0
2019-02-06T00:35:29.696Z,0
2019-02-06T00:36:30.277Z,0
2019-02-06T00:37:30.944Z,0
2019-02-06T00:38:31.667Z,0
2019-02-06T00:39:32.231Z,0
2019-02-06T00:40:32.796Z,0
2019-02-06T00:41:33.362Z,0
2019-02-06T00:42:33.928Z,0
2019-02-06T00:43:34.493Z,0
2019-02-06T00:44:35.058Z,0
2019-02-06T00:45:35.626Z,0
2019-02-06T00:46:36.387Z,0
2019-02-06T00:47:36.953Z,0
2019-02-06T00:48:37.517Z,0
2019-02-06T00:49:38.085Z,0
2019-02-06T00:50:38.650Z,0
2019-02-06T00:51:39.216Z,0
2019-02-06T00:52:39.780Z,0
2019-02-06T00:53:40.346Z,0
2019-02-06T00:54:40.911Z,0
2019-02-06T00:55:41.477Z,0
2019-02-06T00:56:42.041Z,0
2019-02-06T00:57:42.606Z,0
2019-02-06T00:58:43.171Z,0
2019-02-06T00:59:43.736Z,0
2019-02-06T01:00:44.303Z,0
2019-02-06T01:01:44.982Z,0
2019-02-06T01:02:45.486Z,0
2019-02-06T01:03:46.367Z,0
2019-02-06T01:04:46.945Z,0
2019-02-06T01:05:47.511Z,0
2019-02-06T01:06:48.076Z,0
2019-02-06T01:07:48.640Z,0
2019-02-06T01:08:49.207Z,0
2019-02-06T01:09:49.770Z,0
2019-02-06T01:10:50.335Z,0
2019-02-06T01:11:51.171Z,0
2019-02-06T01:12:51.836Z,0
2019-02-06T01:13:52.402Z,0
2019-02-06T01:14:52.967Z,0
2019-02-06T01:15:53.534Z,0
2019-02-06T01:16:54.100Z,0
2019-02-06T01:17:54.664Z,0
2019-02-06T01:18:55.228Z,0
2019-02-06T01:19:56.067Z,0
2019-02-06T01:20:56.636Z,0
2019-02-06T01:21:57.196Z,0
2019-02-06T01:22:57.764Z,0
2019-02-06T01:23:58.329Z,0
2019-02-06T01:24:58.895Z,0
2019-02-06T01:25:59.458Z,0
2019-02-06T01:27:00.023Z,0
2019-02-06T01:28:00.848Z,0
2019-02-06T01:29:01.415Z,0
2019-02-06T01:30:01.985Z,0
2019-02-06T01:31:02.547Z,0
2019-02-06T01:32:03.115Z,0
2019-02-06T01:33:03.679Z,0
2019-02-06T01:34:04.247Z,0
2019-02-06T01:35:04.811Z,0
2019-02-06T01:36:05.665Z,0
2019-02-06T01:37:06.230Z,0
2019-02-06T01:38:06.797Z,0
2019-02-06T01:39:07.362Z,0
2019-02-06T01:40:07.930Z,0
2019-02-06T01:41:08.493Z,0
2019-02-06T01:42:09.064Z,0
2019-02-06T01:43:09.660Z,0
2019-02-06T01:44:10.233Z,0
2019-02-06T01:45:10.796Z,0
2019-02-06T01:46:11.364Z,0
2019-02-06T01:47:11.927Z,0
2019-02-06T01:48:12.506Z,0
2019-02-06T01:49:13.192Z,0
2019-02-06T01:50:13.646Z,0
2019-02-06T01:51:14.210Z,0
2019-02-06T01:52:15.044Z,0
2019-02-06T01:53:15.624Z,0
2019-02-06T01:54:16.175Z,0
2019-02-06T01:55:16.783Z,0
2019-02-06T01:56:17.303Z,0
2019-02-06T01:57:17.868Z,0
2019-02-06T01:58:18.435Z,0
2019-02-06T01:59:18.998Z,0
2019-02-06T02:00:19.759Z,0
2019-02-06T02:01:20.336Z,0
2019-02-06T02:02:20.903Z,0
2019-02-06T02:03:21.469Z,0
2019-02-06T02:04:22.034Z,0
2019-02-06T02:05:22.598Z,0
2019-02-06T02:06:23.164Z,0
2019-02-06T02:07:23.727Z,0
2019-02-06T02:08:24.559Z,0
2019-02-06T02:09:25.126Z,0
2019-02-06T02:10:25.691Z,0
2019-02-06T02:11:26.259Z,0
2019-02-06T02:12:26.822Z,0
2019-02-06T02:14:10.640Z,0
2019-02-06T02:15:11.205Z,0
2019-02-06T02:16:11.771Z,0
2019-02-06T02:17:12.338Z,0
2019-02-06T02:18:12.903Z,0
2019-02-06T02:19:13.469Z,0
2019-02-06T02:20:14.047Z,0
2019-02-06T02:21:14.614Z,0
2019-02-06T02:22:15.191Z,0
2019-02-06T02:23:15.756Z,0
2019-02-06T02:24:16.321Z,0
2019-02-06T02:25:16.898Z,0
2019-02-06T02:26:17.463Z,0
2019-02-06T02:27:18.028Z,0
2019-02-06T02:28:18.592Z,0
2019-02-06T02:29:19.160Z,0
2019-02-06T02:30:19.723Z,0
2019-02-06T02:31:20.621Z,0
2019-02-06T02:32:21.187Z,0
2019-02-06T02:33:21.763Z,0
2019-02-06T02:34:22.326Z,0
2019-02-06T02:35:22.891Z,0
2019-02-06T02:36:23.560Z,0
2019-02-06T02:37:24.123Z,0
2019-02-06T02:38:24.687Z,0
2019-02-06T02:39:25.259Z,0
2019-02-06T02:40:25.824Z,0
2019-02-06T02:41:26.400Z,0
2019-02-06T02:42:26.965Z,0
2019-02-06T02:43:27.531Z,0
2019-02-06T02:44:28.094Z,0
2019-02-06T02:45:28.660Z,0
2019-02-06T02:46:29.224Z,0
2019-02-06T02:47:29.963Z,0
2019-02-06T02:48:30.532Z,0
2019-02-06T02:49:31.107Z,0
2019-02-06T02:50:31.685Z,0
2019-02-06T02:51:32.251Z,0
2019-02-06T02:52:32.815Z,0
2019-02-06T02:53:33.378Z,0
2019-02-06T02:54:33.943Z,0
2019-02-06T02:55:34.611Z,0
2019-02-06T02:56:35.155Z,0
2019-02-06T02:57:35.721Z,0
2019-02-06T02:58:36.286Z,0
2019-02-06T02:59:36.850Z,0
2019-02-06T03:00:37.414Z,0
2019-02-06T03:01:37.980Z,0
2019-02-06T03:02:38.546Z,0
2019-02-06T03:03:39.116Z,0
2019-02-06T03:04:39.688Z,0
2019-02-06T03:05:40.247Z,0
2019-02-06T03:06:40.813Z,0
2019-02-06T03:07:41.389Z,0
2019-02-06T03:08:41.952Z,0
2019-02-06T03:09:42.515Z,0
2019-02-06T03:10:43.081Z,0
2019-02-06T03:11:43.656Z,0
2019-02-06T03:12:44.216Z,0
2019-02-06T03:13:44.782Z,0
2019-02-06T03:14:45.359Z,0
2019-02-06T03:15:45.929Z,0
2019-02-06T03:16:46.504Z,0
2019-02-06T03:17:47.052Z,0
2019-02-06T03:18:47.614Z,0
2019-02-06T03:19:48.179Z,0
2019-02-06T03:20:48.948Z,0
2019-02-06T03:21:49.513Z,0
2019-02-06T03:22:50.078Z,0
2019-02-06T03:23:50.644Z,0
2019-02-06T03:24:51.208Z,0
2019-02-06T03:25:51.777Z,0
2019-02-06T03:26:52.337Z,0
2019-02-06T03:27:52.901Z,0
2019-02-06T03:28:53.678Z,0
2019-02-06T03:29:54.242Z,0
2019-02-06T03:30:54.808Z,0
2019-02-06T03:31:55.375Z,0
2019-02-06T03:32:55.937Z,0
2019-02-06T03:33:56.500Z,0
2019-02-06T03:34:57.065Z,0
2019-02-06T03:35:57.630Z,0
2019-02-06T03:36:58.193Z,0
2019-02-06T03:37:58.756Z,0
2019-02-06T03:38:59.321Z,0
2019-02-06T03:39:59.885Z,0
2019-02-06T03:41:00.449Z,0
2019-02-06T03:42:01.020Z,0
2019-02-06T03:43:01.576Z,0
2019-02-06T03:44:02.143Z,0
2019-02-06T03:45:02.704Z,0
2019-02-06T03:46:03.281Z,0
2019-02-06T03:47:03.846Z,0
2019-02-06T03:48:04.423Z,0
2019-02-06T03:49:04.988Z,0
2019-02-06T03:50:05.563Z,0
2019-02-06T03:51:06.126Z,0
2019-02-06T03:52:06.691Z,0
2019-02-06T03:53:07.256Z,0
2019-02-06T03:54:08.025Z,0
2019-02-06T03:55:08.576Z,0
2019-02-06T03:56:09.145Z,0
2019-02-06T03:57:09.721Z,0
2019-02-06T03:58:10.288Z,0
2019-02-06T03:59:10.852Z,0
2019-02-06T04:00:11.416Z,0
2019-02-06T04:01:11.982Z,0
2019-02-06T04:02:12.546Z,0
2019-02-06T04:03:13.121Z,0
2019-02-06T04:04:13.686Z,0
2019-02-06T04:05:14.254Z,0
2019-02-06T04:06:14.823Z,0
2019-02-06T04:07:15.381Z,0
2019-02-06T04:08:15.950Z,0
2019-02-06T04:09:16.514Z,0
2019-02-06T04:10:17.363Z,0
2019-02-06T04:11:17.929Z,0
2019-02-06T04:12:18.491Z,0
2019-02-06T04:13:19.055Z,0
2019-02-06T04:14:19.620Z,0
2019-02-06T04:15:20.182Z,0
2019-02-06T04:16:20.746Z,0
2019-02-06T04:17:21.311Z,0
2019-02-06T04:18:22.170Z,0
2019-02-06T04:19:22.735Z,0
2019-02-06T04:20:23.298Z,0
2019-02-06T04:21:23.875Z,0
2019-02-06T04:22:24.439Z,0
2019-02-06T04:23:25.004Z,0
2019-02-06T04:24:25.573Z,0
2019-02-06T04:25:26.136Z,0
2019-02-06T04:26:26.771Z,0
2019-02-06T04:27:27.334Z,0
2019-02-06T04:28:27.897Z,0
2019-02-06T04:29:28.461Z,0
2019-02-06T04:30:29.024Z,0
2019-02-06T04:31:29.589Z,0
2019-02-06T04:32:30.153Z,0
2019-02-06T04:33:30.716Z,0
2019-02-06T04:34:31.281Z,0
2019-02-06T04:35:31.846Z,0
2019-02-06T04:36:32.408Z,0
2019-02-06T04:37:32.975Z,0
2019-02-06T04:38:33.536Z,0
2019-02-06T04:39:34.101Z,0
2019-02-06T04:40:34.802Z,0
2019-02-06T04:41:35.306Z,0
2019-02-06T04:42:35.869Z,0
2019-02-06T04:43:36.715Z,0
2019-02-06T04:44:37.248Z,0
2019-02-06T04:45:37.801Z,0
2019-02-06T04:46:38.368Z,0
2019-02-06T04:47:38.930Z,0
2019-02-06T04:48:39.493Z,0
2019-02-06T04:49:40.058Z,0
2019-02-06T04:50:40.621Z,0
2019-02-06T04:51:41.540Z,0
2019-02-06T04:52:42.105Z,0
2019-02-06T04:53:42.670Z,0
2019-02-06T04:54:43.235Z,0
2019-02-06T04:55:43.802Z,0
2019-02-06T04:56:44.374Z,0
2019-02-06T04:57:44.950Z,0
2019-02-06T04:58:45.515Z,0
2019-02-06T04:59:46.394Z,0
2019-02-06T05:00:46.958Z,0
2019-02-06T05:01:47.524Z,0
2019-02-06T05:02:48.090Z,0
2019-02-06T05:03:48.667Z,0
2019-02-06T05:04:49.233Z,0
2019-02-06T05:05:49.798Z,0
2019-02-06T05:06:50.364Z,0
2019-02-06T05:07:50.933Z,0
2019-02-06T05:08:51.497Z,0
2019-02-06T05:09:52.063Z,0
2019-02-06T05:10:52.626Z,0
2019-02-06T05:11:53.193Z,0
2019-02-06T05:12:53.755Z,0
2019-02-06T05:13:54.321Z,0
2019-02-06T05:14:54.885Z,0
2019-02-06T05:15:55.682Z,0
2019-02-06T05:16:56.245Z,0
2019-02-06T05:17:56.810Z,0
2019-02-06T05:18:57.374Z,0
2019-02-06T05:19:57.937Z,0
2019-02-06T05:20:58.505Z,0
2019-02-06T05:21:59.079Z,0
2019-02-06T05:22:59.647Z,0
2019-02-06T05:24:00.406Z,0
2019-02-06T05:25:00.971Z,0
2019-02-06T05:26:01.535Z,0
2019-02-06T05:27:02.101Z,0
2019-02-06T05:28:02.673Z,0
2019-02-06T05:29:03.238Z,0
2019-02-06T05:30:03.806Z,0
2019-02-06T05:31:04.371Z,0
2019-02-06T05:32:05.006Z,0
2019-02-06T05:33:05.570Z,0
2019-02-06T05:34:06.135Z,0
2019-02-06T05:35:06.711Z,0
2019-02-06T05:36:07.286Z,0
2019-02-06T05:37:07.851Z,0
2019-02-06T05:38:08.473Z,0
2019-02-06T05:39:08.998Z,0
2019-02-06T05:40:09.739Z,0
2019-02-06T05:41:10.300Z,0
2019-02-06T05:42:10.866Z,0
2019-02-06T05:43:11.427Z,0
2019-02-06T05:44:12.003Z,0
2019-02-06T05:45:12.577Z,0
2019-02-06T05:46:13.140Z,0
2019-02-06T05:47:13.704Z,0
2019-02-06T05:48:14.403Z,0
2019-02-06T05:49:14.966Z,0
2019-02-06T05:50:15.552Z,0
2019-02-06T05:51:16.104Z,0
2019-02-06T05:52:16.735Z,0
2019-02-06T05:53:17.251Z,0
2019-02-06T05:54:17.818Z,0
2019-02-06T05:55:18.394Z,0
2019-02-06T05:56:19.261Z,0
2019-02-06T05:57:19.838Z,0
2019-02-06T05:58:20.403Z,0
2019-02-06T05:59:20.966Z,0
2019-02-06T06:00:21.529Z,0
2019-02-06T06:01:22.093Z,0
2019-02-06T06:02:22.657Z,0
2019-02-06T06:03:23.219Z,0
2019-02-06T06:04:24.062Z,0
2019-02-06T06:05:24.576Z,0
2019-02-06T06:06:25.141Z,0
2019-02-06T06:07:25.705Z,0
2019-02-06T06:08:26.270Z,0
2019-02-06T06:09:26.834Z,0
2019-02-06T06:10:27.399Z,0
2019-02-06T06:11:27.962Z,0
2019-02-06T06:12:28.625Z,0
2019-02-06T06:13:29.204Z,0
2019-02-06T06:14:29.764Z,0
2019-02-06T06:15:30.327Z,0
2019-02-06T06:16:30.894Z,0
2019-02-06T06:17:31.456Z,0
2019-02-06T06:18:32.053Z,0
2019-02-06T06:19:32.583Z,0
2019-02-06T06:20:33.355Z,0
2019-02-06T06:21:33.913Z,0
2019-02-06T06:22:34.479Z,0
2019-02-06T06:23:35.045Z,0
2019-02-06T06:24:35.610Z,0
2019-02-06T06:25:36.175Z,0
2019-02-06T06:26:36.749Z,0
2019-02-06T06:27:37.315Z,0
2019-02-06T06:28:37.886Z,0
2019-02-06T06:29:38.453Z,0
2019-02-06T06:30:39.015Z,0
2019-02-06T06:31:39.578Z,0
2019-02-06T06:32:40.167Z,0
2019-02-06T06:33:40.708Z,0
2019-02-06T06:34:41.283Z,0
2019-02-06T06:35:41.848Z,0
2019-02-06T06:36:42.535Z,0
2019-02-06T06:37:43.099Z,0
2019-02-06T06:38:43.663Z,0
2019-02-06T06:39:44.228Z,0
2019-02-06T06:40:44.799Z,0
2019-02-06T06:41:45.440Z,0
2019-02-06T06:42:46.011Z,0
2019-02-06T06:43:46.507Z,0
2019-02-06T06:44:47.078Z,0
2019-02-06T06:45:47.647Z,0
2019-02-06T06:46:48.211Z,0
2019-02-06T06:47:48.786Z,4
2019-02-06T06:48:49.349Z,0
2019-02-06T06:49:49.914Z,4
2019-02-06T06:50:50.478Z,0
2019-02-06T06:51:51.045Z,4
2019-02-06T06:52:51.605Z,4
2019-02-06T06:53:52.169Z,4
2019-02-06T06:54:52.733Z,4
2019-02-06T06:55:53.296Z,4
2019-02-06T06:56:53.862Z,4
2019-02-06T06:57:54.424Z,4
2019-02-06T06:58:55.000Z,4
2019-02-06T06:59:55.764Z,4
2019-02-06T07:00:56.266Z,4
2019-02-06T07:01:56.837Z,8
2019-02-06T07:02:57.394Z,4
2019-02-06T07:03:57.958Z,8
2019-02-06T07:04:58.523Z,8
2019-02-06T07:05:59.086Z,8
2019-02-06T07:06:59.649Z,8
2019-02-06T07:08:09.106Z,12
2019-02-06T07:09:01.774Z,12
2019-02-06T07:10:02.344Z,12
2019-02-06T07:11:02.913Z,12
2019-02-06T07:12:03.475Z,12
2019-02-06T07:13:04.040Z,16
2019-02-06T07:14:04.605Z,16
2019-02-06T07:15:05.171Z,20
2019-02-06T07:16:05.750Z,20
2019-02-06T07:17:06.319Z,20
2019-02-06T07:18:07.107Z,20
2019-02-06T07:19:07.675Z,24
2019-02-06T07:20:08.240Z,24
2019-02-06T07:21:08.812Z,24
2019-02-06T07:22:09.384Z,28
2019-02-06T07:23:09.950Z,28
2019-02-06T07:24:10.517Z,28
2019-02-06T07:25:11.083Z,32
2019-02-06T07:26:11.652Z,36
2019-02-06T07:27:12.229Z,36
2019-02-06T07:28:12.796Z,40
2019-02-06T07:29:13.364Z,40
2019-02-06T07:30:13.944Z,44
2019-02-06T07:31:14.504Z,44
2019-02-06T07:32:15.070Z,48
2019-02-06T07:33:15.636Z,48
2019-02-06T07:34:16.202Z,48
2019-02-06T07:35:16.773Z,52
2019-02-06T07:36:17.332Z,52
2019-02-06T07:37:17.896Z,56
2019-02-06T07:38:24.281Z,56
2019-02-06T07:39:19.045Z,56
2019-02-06T07:40:19.610Z,60
2019-02-06T07:41:20.176Z,60
2019-02-06T07:42:20.740Z,64
2019-02-06T07:43:21.305Z,64
2019-02-06T07:44:21.872Z,68
2019-02-06T07:45:22.435Z,68
2019-02-06T07:46:23.001Z,72
2019-02-06T07:47:23.566Z,72
2019-02-06T07:48:24.146Z,72
2019-02-06T07:49:24.711Z,76
2019-02-06T07:50:25.278Z,80
2019-02-06T07:51:26.067Z,76
2019-02-06T07:52:26.629Z,84
2019-02-06T07:53:27.196Z,84
2019-02-06T07:54:27.762Z,88
2019-02-06T07:55:28.328Z,88
2019-02-06T07:56:28.892Z,92
2019-02-06T07:57:29.463Z,92
2019-02-06T07:58:30.024Z,96
2019-02-06T07:59:30.886Z,92
2019-02-06T08:00:31.449Z,96
2019-02-06T08:01:32.015Z,100
2019-02-06T08:02:32.581Z,100
2019-02-06T08:03:33.147Z,100
2019-02-06T08:04:33.715Z,104
2019-02-06T08:05:34.282Z,108
2019-02-06T08:06:34.852Z,108
2019-02-06T08:07:35.678Z,108
2019-02-06T08:08:36.532Z,112
2019-02-06T08:09:37.057Z,112
2019-02-06T08:10:37.637Z,112
2019-02-06T08:11:38.198Z,116
2019-02-06T08:12:38.767Z,116
2019-02-06T08:13:39.335Z,116
2019-02-06T08:14:39.903Z,120
2019-02-06T08:15:40.666Z,120
2019-02-06T08:16:41.234Z,124
2019-02-06T08:17:41.806Z,124
2019-02-06T08:18:42.381Z,124
2019-02-06T08:19:42.947Z,132
2019-02-06T08:20:43.515Z,132
2019-02-06T08:21:44.081Z,132
2019-02-06T08:22:44.650Z,136
2019-02-06T08:23:45.460Z,136
2019-02-06T08:24:46.028Z,144
2019-02-06T08:25:46.595Z,144
2019-02-06T08:26:47.162Z,148
2019-02-06T08:27:47.740Z,152
2019-02-06T08:28:48.308Z,152
2019-02-06T08:29:48.891Z,152
2019-02-06T08:30:49.443Z,156
2019-02-06T08:31:50.035Z,156
2019-02-06T08:32:50.600Z,160
2019-02-06T08:33:51.168Z,160
2019-02-06T08:34:51.736Z,164
2019-02-06T08:35:52.304Z,164
2019-02-06T08:36:52.870Z,172
2019-02-06T08:37:53.438Z,172
2019-02-06T08:38:55.689Z,176
2019-02-06T08:39:55.563Z,176
2019-02-06T08:40:56.135Z,180
2019-02-06T08:41:56.702Z,184
2019-02-06T08:42:57.266Z,188
2019-02-06T08:43:57.833Z,188
2019-02-06T08:44:58.400Z,188
2019-02-06T08:45:58.973Z,192
2019-02-06T08:46:59.535Z,196
2019-02-06T08:48:00.102Z,196
2019-02-06T08:49:00.937Z,200
2019-02-06T08:50:01.504Z,204
2019-02-06T08:51:02.071Z,208
2019-02-06T08:52:02.639Z,212
2019-02-06T08:53:03.205Z,216
2019-02-06T08:54:03.772Z,220
2019-02-06T08:55:04.340Z,224
2019-02-06T08:56:04.910Z,228
2019-02-06T08:57:05.698Z,228
2019-02-06T08:58:06.279Z,232
2019-02-06T08:59:06.848Z,236
2019-02-06T09:00:07.418Z,240
2019-02-06T09:01:07.984Z,244
2019-02-06T09:02:08.563Z,244
2019-02-06T09:03:09.131Z,244
2019-02-06T09:04:09.701Z,248
2019-02-06T09:05:10.458Z,248
2019-02-06T09:06:11.027Z,252
2019-02-06T09:07:11.595Z,252
2019-02-06T09:08:12.164Z,252
2019-02-06T09:09:12.732Z,256
2019-02-06T09:10:13.558Z,256
2019-02-06T09:11:14.065Z,256
2019-02-06T09:12:14.644Z,260
2019-02-06T09:13:15.438Z,260
2019-02-06T09:14:16.006Z,260
2019-02-06T09:15:16.573Z,264
2019-02-06T09:16:17.145Z,264
2019-02-06T09:17:17.711Z,268
2019-02-06T09:18:18.279Z,268
2019-02-06T09:19:18.859Z,272
2019-02-06T09:20:19.429Z,276
2019-02-06T09:21:19.996Z,284
2019-02-06T09:22:20.576Z,284
2019-02-06T09:23:21.144Z,284
2019-02-06T09:24:21.738Z,288
2019-02-06T09:25:22.291Z,292
2019-02-06T09:26:22.859Z,288
2019-02-06T09:27:23.428Z,288
2019-02-06T09:28:23.996Z,292
2019-02-06T09:29:24.563Z,296
2019-02-06T09:30:25.376Z,292
2019-02-06T09:31:25.945Z,296
2019-02-06T09:32:26.514Z,288
2019-02-06T09:33:27.081Z,284
2019-02-06T09:34:27.653Z,280
2019-02-06T09:35:28.232Z,280
2019-02-06T09:36:28.800Z,280
2019-02-06T09:37:29.370Z,280
2019-02-06T09:38:30.005Z,272
2019-02-06T09:39:30.574Z,272
2019-02-06T09:40:31.146Z,264
2019-02-06T09:41:31.719Z,248
2019-02-06T09:42:32.300Z,240
2019-02-06T09:43:32.874Z,232
2019-02-06T09:44:33.437Z,224
2019-02-06T09:45:34.005Z,220
2019-02-06T09:46:34.876Z,220
2019-02-06T09:47:35.447Z,216
2019-02-06T09:48:36.041Z,220
2019-02-06T09:49:36.607Z,228
2019-02-06T09:50:37.175Z,232
2019-02-06T09:51:37.754Z,240
2019-02-06T09:52:38.322Z,240
2019-02-06T09:53:38.890Z,252
2019-02-06T09:54:39.660Z,256
2019-02-06T09:55:40.227Z,260
2019-02-06T09:56:40.796Z,260
2019-02-06T09:57:41.364Z,260
2019-02-06T09:58:41.934Z,256
2019-02-06T09:59:42.503Z,256
2019-02-06T10:00:43.073Z,248
2019-02-06T10:01:43.641Z,244
2019-02-06T10:02:44.460Z,232
2019-02-06T10:03:46.880Z,220
2019-02-06T10:04:45.601Z,208
2019-02-06T10:05:46.270Z,200
2019-02-06T10:06:46.764Z,192
2019-02-06T10:07:47.331Z,188
2019-02-06T10:08:47.898Z,184
2019-02-06T10:09:48.467Z,188
2019-02-06T10:10:49.040Z,196
2019-02-06T10:11:49.611Z,208
2019-02-06T10:12:50.191Z,216
2019-02-06T10:13:50.757Z,220
2019-02-06T10:14:51.325Z,224
2019-02-06T10:15:51.892Z,228
2019-02-06T10:16:52.462Z,232
2019-02-06T10:17:53.027Z,236
2019-02-06T10:18:53.741Z,244
2019-02-06T10:19:54.311Z,248
2019-02-06T10:20:54.881Z,256
2019-02-06T10:21:55.450Z,268
2019-02-06T10:22:56.018Z,284
2019-02-06T10:23:56.587Z,280
2019-02-06T10:24:57.156Z,280
2019-02-06T10:25:57.831Z,280
2019-02-06T10:26:58.422Z,284
2019-02-06T10:27:58.993Z,276
2019-02-06T10:28:59.562Z,272
2019-02-06T10:30:00.365Z,272
2019-02-06T10:31:01.008Z,276
2019-02-06T10:32:01.576Z,288
2019-02-06T10:33:02.145Z,292
2019-02-06T10:34:02.713Z,296
2019-02-06T10:35:03.285Z,296
2019-02-06T10:36:04.163Z,300
2019-02-06T10:37:04.733Z,296
2019-02-06T10:38:05.353Z,288
2019-02-06T10:39:05.920Z,276
2019-02-06T10:40:06.490Z,268
2019-02-06T10:41:07.059Z,264
2019-02-06T10:42:07.630Z,256
2019-02-06T10:43:08.204Z,252
2019-02-06T10:44:09.072Z,256
2019-02-06T10:45:09.643Z,264
2019-02-06T10:46:10.209Z,268
2019-02-06T10:47:10.781Z,268
2019-02-06T10:48:11.348Z,272
2019-02-06T10:49:11.917Z,272
2019-02-06T10:50:12.489Z,272
2019-02-06T10:51:13.069Z,284
2019-02-06T10:52:13.853Z,284
2019-02-06T10:53:14.435Z,296
2019-02-06T10:54:14.990Z,296
2019-02-06T10:55:15.571Z,296
2019-02-06T10:56:16.141Z,304
2019-02-06T10:57:16.712Z,312
2019-02-06T10:58:17.280Z,316
2019-02-06T10:59:17.849Z,312
2019-02-06T11:00:18.617Z,312
2019-02-06T11:01:19.187Z,304
2019-02-06T11:02:19.756Z,304
2019-02-06T11:03:20.324Z,300
2019-02-06T11:04:20.907Z,304
2019-02-06T11:05:21.470Z,308
2019-02-06T11:06:22.046Z,316
2019-02-06T11:07:22.626Z,324
2019-02-06T11:08:23.385Z,332
2019-02-06T11:09:23.964Z,328
2019-02-06T11:10:24.534Z,328
2019-02-06T11:11:25.102Z,324
2019-02-06T11:12:25.675Z,324
2019-02-06T11:13:26.242Z,316
2019-02-06T11:14:26.816Z,300
2019-02-06T11:15:27.395Z,292
2019-02-06T11:16:28.168Z,280
2019-02-06T11:17:28.734Z,264
2019-02-06T11:18:29.305Z,248
2019-02-06T11:19:29.886Z,232
2019-02-06T11:20:30.467Z,216
2019-02-06T11:21:31.036Z,204
2019-02-06T11:22:31.602Z,196
2019-02-06T11:23:32.169Z,188
2019-02-06T11:24:32.738Z,196
2019-02-06T11:25:33.349Z,188
2019-02-06T11:26:33.920Z,192
2019-02-06T11:27:34.488Z,204
2019-02-06T11:28:35.055Z,216
2019-02-06T11:29:35.623Z,220
2019-02-06T11:30:36.192Z,228
2019-02-06T11:31:36.759Z,232
2019-02-06T11:32:37.329Z,244
2019-02-06T11:33:38.145Z,248
2019-02-06T11:34:38.715Z,248
2019-02-06T11:35:39.288Z,256
2019-02-06T11:36:39.858Z,256
2019-02-06T11:37:40.530Z,252
2019-02-06T11:38:41.026Z,244
2019-02-06T11:39:41.597Z,244
2019-02-06T11:40:42.167Z,244
2019-02-06T11:41:42.989Z,256
2019-02-06T11:42:43.558Z,272
2019-02-06T11:43:44.139Z,272
2019-02-06T11:44:44.709Z,264
2019-02-06T11:45:45.277Z,264
2019-02-06T11:46:45.848Z,264
2019-02-06T11:47:46.417Z,256
2019-02-06T11:48:46.989Z,256
2019-02-06T11:49:47.672Z,252
2019-02-06T11:50:48.242Z,244
2019-02-06T11:51:48.813Z,244
2019-02-06T11:52:49.382Z,232
2019-02-06T11:53:49.950Z,228
2019-02-06T11:54:50.521Z,224
2019-02-06T11:55:51.091Z,216
2019-02-06T11:56:51.654Z,220
2019-02-06T11:57:52.224Z,220
2019-02-06T11:58:52.795Z,224
2019-02-06T11:59:53.378Z,232
2019-02-06T12:00:53.938Z,244
2019-02-06T12:01:54.502Z,252
2019-02-06T12:02:55.070Z,268
2019-02-06T12:03:55.640Z,284
2019-02-06T12:04:56.209Z,292
2019-02-06T12:05:56.779Z,292
2019-02-06T12:06:57.352Z,288
2019-02-06T12:07:57.921Z,280
2019-02-06T12:08:58.495Z,292
2019-02-06T12:10:09.344Z,304
2019-02-06T12:11:00.627Z,304
2019-02-06T12:12:01.204Z,308
2019-02-06T12:13:01.780Z,308
2019-02-06T12:14:02.350Z,308
2019-02-06T12:15:03.214Z,304
2019-02-06T12:16:03.782Z,288
2019-02-06T12:17:04.471Z,276
2019-02-06T12:18:05.001Z,260
2019-02-06T12:19:05.574Z,236
2019-02-06T12:20:06.153Z,224
2019-02-06T12:21:06.720Z,224
2019-02-06T12:22:07.321Z,232
2019-02-06T12:23:07.867Z,232
2019-02-06T12:24:08.435Z,240
2019-02-06T12:25:09.007Z,236
2019-02-06T12:26:09.575Z,232
2019-02-06T12:27:10.144Z,220
2019-02-06T12:28:10.715Z,204
2019-02-06T12:29:11.281Z,196
2019-02-06T12:30:11.852Z,196
2019-02-06T12:31:12.618Z,204
2019-02-06T12:32:13.186Z,212
2019-02-06T12:33:13.754Z,216
2019-02-06T12:34:14.322Z,224
2019-02-06T12:35:14.892Z,236
2019-02-06T12:36:15.977Z,240
2019-02-06T12:37:16.525Z,244
2019-02-06T12:38:17.093Z,248
2019-02-06T12:39:17.940Z,252
2019-02-06T12:40:21.765Z,264
2019-02-06T12:41:20.074Z,280
2019-02-06T12:42:20.641Z,296
2019-02-06T12:43:21.211Z,300
2019-02-06T12:44:21.946Z,292
2019-02-06T12:45:22.513Z,292
2019-02-06T12:46:23.087Z,300
2019-02-06T12:47:26.683Z,316
2019-02-06T12:48:25.221Z,328
2019-02-06T12:49:25.793Z,332
2019-02-06T12:50:26.360Z,332
2019-02-06T12:51:26.931Z,324
2019-02-06T12:52:27.500Z,320
2019-02-06T12:53:28.072Z,312
2019-02-06T12:54:29.635Z,304
2019-02-06T12:55:30.206Z,296
2019-02-06T12:56:30.775Z,280
2019-02-06T12:57:37.342Z,268
2019-02-06T12:58:31.924Z,260
2019-02-06T12:59:32.489Z,252
2019-02-06T13:00:33.071Z,248
2019-02-06T13:01:33.640Z,240
2019-02-06T13:02:34.396Z,240
2019-02-06T13:03:34.964Z,236
2019-02-06T13:04:35.546Z,236
2019-02-06T13:05:36.114Z,236
2019-02-06T13:06:36.684Z,236
2019-02-06T13:07:37.253Z,240
2019-02-06T13:08:37.824Z,248
2019-02-06T13:09:38.397Z,256
2019-02-06T13:10:38.974Z,256
2019-02-06T13:11:39.541Z,256
2019-02-06T13:12:40.113Z,252
2019-02-06T13:13:40.682Z,248
2019-02-06T13:14:41.254Z,240
2019-02-06T13:15:41.822Z,248
2019-02-06T13:16:42.391Z,256
2019-02-06T13:17:42.962Z,260
2019-02-06T13:18:43.769Z,260
2019-02-06T13:19:44.341Z,252
2019-02-06T13:20:44.909Z,244
2019-02-06T13:21:45.479Z,244
2019-02-06T13:22:46.061Z,248
2019-02-06T13:23:49.397Z,260
2019-02-06T13:24:48.199Z,256
2019-02-06T13:25:48.765Z,256
2019-02-06T13:26:49.333Z,256
2019-02-06T13:27:49.914Z,244
2019-02-06T13:28:50.483Z,236
2019-02-06T13:29:51.052Z,224
2019-02-06T13:30:51.623Z,220
2019-02-06T13:31:52.201Z,220
2019-02-06T13:32:52.770Z,212
2019-02-06T13:33:53.338Z,200
2019-02-06T13:34:53.957Z,184
2019-02-06T13:35:54.838Z,172
2019-02-06T13:36:55.411Z,168
2019-02-06T13:37:56.007Z,164
2019-02-06T13:38:56.559Z,160
2019-02-06T13:39:57.130Z,160
2019-02-06T13:40:57.699Z,160
2019-02-06T13:41:58.271Z,164
2019-02-06T13:42:58.838Z,156
2019-02-06T13:43:59.643Z,152
2019-02-06T13:45:00.524Z,152
2019-02-06T13:46:01.044Z,148
2019-02-06T13:47:01.615Z,152
2019-02-06T13:48:02.182Z,148
2019-02-06T13:49:02.749Z,148
2019-02-06T13:50:03.319Z,148
2019-02-06T13:51:15.601Z,152
2019-02-06T13:52:04.462Z,160
2019-02-06T13:53:05.033Z,168
2019-02-06T13:54:05.600Z,176
2019-02-06T13:55:06.169Z,180
2019-02-06T13:56:06.738Z,176
2019-02-06T13:57:07.307Z,180
2019-02-06T13:58:19.160Z,176
2019-02-06T13:59:09.440Z,176
2019-02-06T14:00:10.006Z,184
2019-02-06T14:01:10.574Z,184
2019-02-06T14:02:11.144Z,180
2019-02-06T14:03:11.712Z,176
2019-02-06T14:04:12.293Z,172
2019-02-06T14:05:12.862Z,168
2019-02-06T14:06:13.432Z,160
2019-02-06T14:07:14.002Z,156
2019-02-06T14:08:14.576Z,156
2019-02-06T14:09:22.778Z,156
2019-02-06T14:10:17.008Z,152
2019-02-06T14:11:17.570Z,148
2019-02-06T14:12:18.139Z,148
2019-02-06T14:13:18.710Z,148
2019-02-06T14:14:19.278Z,148
2019-02-06T14:15:19.847Z,140
2019-02-06T14:16:20.417Z,140
2019-02-06T14:17:21.189Z,136
2019-02-06T14:18:21.770Z,132
2019-02-06T14:19:22.340Z,132
2019-02-06T14:20:22.911Z,132
2019-02-06T14:21:23.478Z,132
2019-02-06T14:22:24.047Z,132
2019-02-06T14:23:24.615Z,132
2019-02-06T14:24:25.185Z,132
2019-02-06T14:25:25.845Z,136
2019-02-06T14:26:26.414Z,136